Meadowlakes, Texas
Current Conditions -  °F | °C
As of 7:35 AM on Thursday 30 Oct 2014 (Local Time) from KDZB Reporting Station
Haze Haze  
Wind Chill: 62°   Ceiling: 1400
Heat Index: 62°   Visibility: 5mi
Dew Point: 62°   Wind: 0mph
Humidity: 100%   Direction: NA
Pressure: 30.13"   Gusts: NA
Location:  30.5925°N, 98.2219°W
Report Text: KDZB 301235Z AUTO 00000KT 5SM BR OVC014 17/17 A3013 RMK AO2 T01660166
Loading
Personal Weather Stations






























Interactive Weather Map
Tropical Storm Tracking
New forecast layout! Learn more

10-Day Weather Forecast

Advertisements
Track Severe Weather on mobile